createdAt,value
2023-05-25T00:01:03.470Z,7.60
2023-05-25T00:03:30.776Z,7.50
2023-05-25T00:05:57.775Z,7.40
2023-05-25T00:08:24.586Z,7.40
2023-05-25T00:10:55.495Z,7.30
2023-05-25T00:13:22.264Z,7.20
2023-05-25T00:15:51.896Z,7.20
2023-05-25T00:18:18.959Z,7.10
2023-05-25T00:20:46.017Z,7.10
2023-05-25T00:23:12.927Z,7.00
2023-05-25T00:25:39.714Z,7.00
2023-05-25T00:28:10.448Z,7.00
2023-05-25T00:30:42.502Z,6.90
2023-05-25T00:33:09.374Z,6.80
2023-05-25T00:35:37.550Z,6.80
2023-05-25T00:38:06.519Z,6.80
2023-05-25T00:40:34.932Z,6.70
2023-05-25T00:43:02.212Z,6.70
2023-05-25T00:45:30.391Z,6.70
2023-05-25T00:47:58.978Z,6.70
2023-05-25T00:50:37.151Z,6.70
2023-05-25T00:53:08.113Z,6.60
2023-05-25T00:55:40.913Z,6.70
2023-05-25T00:58:09.853Z,6.70
2023-05-25T01:00:40.605Z,6.70
2023-05-25T01:03:13.336Z,6.70
2023-05-25T01:05:42.853Z,6.60
2023-05-25T01:08:11.755Z,6.60
2023-05-25T01:10:40.818Z,6.50
2023-05-25T01:13:08.638Z,6.50
2023-05-25T01:15:37.740Z,6.40
2023-05-25T01:18:04.619Z,6.40
2023-05-25T01:20:31.436Z,6.40
2023-05-25T01:23:04.964Z,6.40
2023-05-25T01:25:42.236Z,6.40
2023-05-25T01:28:15.250Z,6.20
2023-05-25T01:30:47.192Z,6.20
2023-05-25T01:33:16.161Z,6.10
2023-05-25T01:35:43.399Z,6.20
2023-05-25T01:38:13.924Z,6.20
2023-05-25T01:40:40.675Z,6.20
2023-05-25T01:43:13.012Z,6.20
2023-05-25T01:45:40.072Z,6.10
2023-05-25T01:48:15.473Z,6.10
2023-05-25T01:50:53.133Z,6.10
2023-05-25T01:53:30.535Z,6.00
2023-05-25T01:56:02.300Z,5.90
2023-05-25T01:58:34.771Z,6.00
2023-05-25T02:01:02.248Z,6.00
2023-05-25T02:03:29.206Z,6.00
2023-05-25T02:05:56.090Z,6.00
2023-05-25T02:08:24.240Z,6.00
2023-05-25T02:10:51.009Z,6.10
2023-05-25T02:13:17.864Z,6.10
2023-05-25T02:15:45.018Z,6.10
2023-05-25T02:18:12.081Z,6.10
2023-05-25T02:20:39.020Z,6.00
2023-05-25T02:23:05.816Z,6.00
2023-05-25T02:25:33.894Z,6.00
2023-05-25T02:28:00.693Z,5.90
2023-05-25T02:30:27.532Z,5.90
2023-05-25T02:32:54.332Z,5.90
2023-05-25T02:35:21.120Z,5.80
2023-05-25T02:37:50.345Z,5.80
2023-05-25T02:40:18.992Z,5.80
2023-05-25T02:42:47.053Z,5.80
2023-05-25T02:45:13.798Z,5.70
2023-05-25T02:47:40.709Z,5.80
2023-05-25T02:50:08.015Z,5.80
2023-05-25T02:52:34.813Z,5.80
2023-05-25T02:55:01.587Z,5.80
2023-05-25T02:57:28.473Z,5.80
2023-05-25T02:59:56.642Z,5.80
2023-05-25T03:02:26.313Z,5.80
2023-05-25T03:04:55.899Z,5.90
2023-05-25T03:07:25.381Z,5.90
2023-05-25T03:09:52.205Z,5.90
2023-05-25T03:12:19.042Z,6.00
2023-05-25T03:14:45.814Z,5.90
2023-05-25T03:17:13.960Z,5.90
2023-05-25T03:19:40.728Z,5.90
2023-05-25T03:22:07.574Z,5.90
2023-05-25T03:24:34.471Z,6.00
2023-05-25T03:27:01.218Z,5.90
2023-05-25T03:29:30.517Z,5.90
2023-05-25T03:31:57.338Z,5.90
2023-05-25T03:34:25.464Z,5.90
2023-05-25T03:36:52.362Z,5.80
2023-05-25T03:39:20.079Z,5.80
2023-05-25T03:41:46.825Z,5.80
2023-05-25T03:44:13.821Z,5.80
2023-05-25T03:46:40.673Z,5.80
2023-05-25T03:49:08.972Z,5.90
2023-05-25T03:51:37.050Z,6.00
2023-05-25T03:54:06.207Z,6.00
2023-05-25T03:56:38.020Z,6.10
2023-05-25T03:59:04.767Z,6.10
2023-05-25T04:01:31.502Z,6.20
2023-05-25T04:04:13.642Z,6.10
2023-05-25T04:06:45.045Z,6.20
2023-05-25T04:09:12.241Z,6.20
2023-05-25T04:11:39.061Z,6.20
2023-05-25T04:14:05.796Z,6.30
2023-05-25T04:16:32.773Z,6.30
2023-05-25T04:18:59.599Z,6.40
2023-05-25T04:21:26.392Z,6.50
2023-05-25T04:23:55.879Z,6.50
2023-05-25T04:26:25.817Z,7.00
2023-05-25T04:28:52.911Z,7.40
2023-05-25T04:31:19.741Z,8.10
2023-05-25T04:33:46.646Z,8.60
2023-05-25T04:36:13.454Z,9.20
2023-05-25T04:38:40.224Z,10.00
2023-05-25T04:41:08.598Z,10.50
2023-05-25T04:43:35.363Z,10.90
2023-05-25T04:46:02.251Z,11.10
2023-05-25T04:48:35.193Z,11.30
2023-05-25T04:51:01.995Z,11.70
2023-05-25T04:53:28.889Z,12.50
2023-05-25T04:55:55.834Z,12.40
2023-05-25T04:58:25.126Z,12.50
2023-05-25T05:00:55.285Z,12.30
2023-05-25T05:03:22.353Z,12.10
2023-05-25T05:05:51.963Z,12.20
2023-05-25T05:08:24.436Z,12.00
2023-05-25T05:10:51.193Z,12.00
2023-05-25T05:13:20.148Z,11.90
2023-05-25T05:15:48.281Z,11.90
2023-05-25T05:18:15.160Z,11.80
2023-05-25T05:20:42.108Z,12.00
2023-05-25T05:23:09.012Z,12.10
2023-05-25T05:25:38.460Z,12.70
2023-05-25T05:28:05.282Z,12.80
2023-05-25T05:30:34.758Z,12.50
2023-05-25T05:33:03.113Z,12.30
2023-05-25T05:35:29.998Z,12.40
2023-05-25T05:37:56.799Z,12.80
2023-05-25T05:40:23.672Z,13.30
2023-05-25T05:42:52.956Z,13.60
2023-05-25T05:45:22.561Z,13.30
2023-05-25T05:47:49.537Z,13.50
2023-05-25T05:50:21.593Z,13.50
2023-05-25T05:52:51.324Z,14.00
2023-05-25T05:55:18.332Z,13.90
2023-05-25T05:57:45.167Z,14.50
2023-05-25T06:00:14.498Z,15.20
2023-05-25T06:02:41.972Z,15.60
2023-05-25T06:05:11.735Z,15.50
2023-05-25T06:07:40.478Z,14.90
2023-05-25T06:10:07.803Z,14.50
2023-05-25T06:12:36.619Z,14.30
2023-05-25T06:15:03.408Z,14.00
2023-05-25T06:17:31.564Z,13.10
2023-05-25T06:19:58.427Z,12.60
2023-05-25T06:22:25.609Z,12.30
2023-05-25T06:24:53.845Z,12.70
2023-05-25T06:27:20.734Z,13.40
2023-05-25T06:29:47.518Z,13.90
2023-05-25T06:32:14.364Z,14.20
2023-05-25T06:34:41.191Z,14.70
2023-05-25T06:37:10.813Z,14.80
2023-05-25T06:39:40.609Z,14.80
2023-05-25T06:42:09.417Z,15.30
2023-05-25T06:44:36.034Z,15.90
2023-05-25T06:47:02.878Z,16.20
2023-05-25T06:49:29.703Z,16.30
2023-05-25T06:51:59.092Z,16.50
2023-05-25T06:54:26.785Z,16.70
2023-05-25T06:56:56.561Z,15.60
2023-05-25T06:59:24.684Z,15.20
2023-05-25T07:01:54.573Z,15.50
2023-05-25T07:04:21.375Z,15.90
2023-05-25T07:06:48.265Z,15.80
2023-05-25T07:09:15.086Z,16.60
2023-05-25T07:11:41.916Z,16.60
2023-05-25T07:14:08.715Z,16.60
2023-05-25T07:16:36.932Z,16.90
2023-05-25T07:19:03.899Z,16.60
2023-05-25T07:21:31.934Z,17.10
2023-05-25T07:23:58.862Z,17.50
2023-05-25T07:26:25.662Z,17.10
2023-05-25T07:28:52.485Z,17.50
2023-05-25T07:31:19.386Z,17.70
2023-05-25T07:33:51.626Z,18.20
2023-05-25T07:36:21.766Z,17.90
2023-05-25T07:38:48.543Z,16.90
2023-05-25T07:41:15.370Z,15.90
2023-05-25T07:43:42.404Z,15.40
2023-05-25T07:46:09.205Z,15.20
2023-05-25T07:48:36.024Z,14.90
2023-05-25T07:51:04.458Z,14.80
2023-05-25T07:53:31.244Z,14.50
2023-05-25T07:56:03.513Z,14.30
2023-05-25T07:58:30.304Z,14.20
2023-05-25T08:00:57.303Z,14.30
2023-05-25T08:03:39.858Z,14.20
2023-05-25T08:06:17.428Z,14.30
2023-05-25T08:08:44.345Z,14.10
2023-05-25T08:11:11.344Z,13.80
2023-05-25T08:13:38.280Z,14.00
2023-05-25T08:16:05.592Z,14.00
2023-05-25T08:18:34.081Z,14.00
2023-05-25T08:21:00.917Z,13.90
2023-05-25T08:23:29.014Z,13.70
2023-05-25T08:25:55.778Z,14.00
2023-05-25T08:28:22.687Z,14.20
2023-05-25T08:30:49.764Z,14.30
2023-05-25T08:33:16.568Z,14.10
2023-05-25T08:35:43.838Z,14.20
2023-05-25T08:38:10.833Z,14.20
2023-05-25T08:40:42.065Z,14.20
2023-05-25T08:43:08.900Z,14.30
2023-05-25T08:45:49.904Z,14.40
2023-05-25T08:48:35.696Z,14.30
2023-05-25T08:51:11.702Z,14.40
2023-05-25T08:53:43.183Z,14.40
2023-05-25T08:56:16.913Z,14.70
2023-05-25T08:58:50.519Z,14.60
2023-05-25T09:01:19.777Z,14.70
2023-05-25T09:03:49.771Z,14.90
2023-05-25T09:06:17.323Z,15.20
2023-05-25T09:08:44.886Z,15.30
2023-05-25T09:11:16.727Z,15.30
2023-05-25T09:13:46.860Z,15.10
2023-05-25T09:16:14.522Z,15.10
2023-05-25T09:18:41.294Z,15.40
2023-05-25T09:21:08.087Z,15.20
2023-05-25T09:23:36.538Z,15.60
2023-05-25T09:26:03.694Z,15.80
2023-05-25T09:28:31.795Z,15.60
2023-05-25T09:31:01.459Z,15.50
2023-05-25T09:33:31.472Z,14.90
2023-05-25T09:35:58.426Z,14.80
2023-05-25T09:38:25.599Z,14.80
2023-05-25T09:40:52.589Z,14.70
2023-05-25T09:43:32.311Z,14.90
2023-05-25T09:46:07.975Z,15.60
2023-05-25T09:48:44.265Z,16.30
2023-05-25T09:51:14.912Z,16.70
2023-05-25T09:53:44.509Z,16.60
2023-05-25T09:56:14.270Z,16.40
2023-05-25T09:58:45.190Z,16.10
2023-05-25T10:01:13.349Z,15.70
2023-05-25T10:03:59.745Z,15.50
2023-05-25T10:06:32.185Z,15.30
2023-05-25T10:08:59.133Z,15.40
2023-05-25T10:11:27.873Z,15.60
2023-05-25T10:13:55.239Z,16.20
2023-05-25T10:16:26.555Z,16.90
2023-05-25T10:18:58.423Z,17.50
2023-05-25T10:21:27.187Z,17.70
2023-05-25T10:23:57.850Z,17.70
2023-05-25T10:26:27.178Z,17.50
2023-05-25T10:28:58.673Z,17.30
2023-05-25T10:31:27.594Z,17.20
2023-05-25T10:33:55.550Z,17.40
2023-05-25T10:36:25.074Z,16.90
2023-05-25T10:38:54.396Z,17.00
2023-05-25T10:41:21.191Z,16.70
2023-05-25T10:43:49.298Z,16.30
2023-05-25T10:46:16.735Z,16.00
2023-05-25T10:48:47.978Z,15.90
2023-05-25T10:51:15.057Z,16.10
2023-05-25T10:53:44.604Z,15.90
2023-05-25T10:56:11.447Z,15.70
2023-05-25T10:58:42.155Z,16.30
2023-05-25T11:01:10.770Z,17.10
2023-05-25T11:03:54.223Z,17.40
2023-05-25T11:06:22.983Z,17.00
2023-05-25T11:08:50.258Z,16.50
2023-05-25T11:11:17.263Z,16.10
2023-05-25T11:13:47.601Z,15.90
2023-05-25T11:16:22.270Z,15.90
2023-05-25T11:18:58.109Z,16.00
2023-05-25T11:21:43.463Z,16.10
2023-05-25T11:24:15.148Z,16.00
2023-05-25T11:26:58.698Z,15.90
2023-05-25T11:29:29.954Z,16.10
2023-05-25T11:31:56.833Z,16.20
2023-05-25T11:34:25.202Z,16.00
2023-05-25T11:36:56.617Z,15.90
2023-05-25T11:39:23.907Z,16.20
2023-05-25T11:41:54.091Z,16.30
2023-05-25T11:44:26.760Z,16.40
2023-05-25T11:46:53.842Z,16.40
2023-05-25T11:49:21.702Z,16.20
2023-05-25T11:51:50.048Z,16.30
2023-05-25T11:54:27.010Z,16.30
2023-05-25T11:56:55.249Z,16.10
2023-05-25T11:59:26.860Z,16.30
2023-05-25T12:02:02.209Z,16.60
2023-05-25T12:04:30.020Z,16.90
2023-05-25T12:07:05.384Z,17.10
2023-05-25T12:09:32.681Z,17.80
2023-05-25T12:12:00.181Z,18.20
2023-05-25T12:14:30.474Z,18.30
2023-05-25T12:16:57.478Z,18.60
2023-05-25T12:19:24.422Z,18.60
2023-05-25T12:21:51.753Z,18.10
2023-05-25T12:24:20.279Z,18.00
2023-05-25T12:26:50.665Z,18.10
2023-05-25T12:29:18.025Z,18.20
2023-05-25T12:31:44.992Z,18.00
2023-05-25T12:34:13.471Z,17.80
2023-05-25T12:36:45.252Z,17.20
2023-05-25T12:39:14.000Z,17.00
2023-05-25T12:41:46.023Z,16.80
2023-05-25T12:44:24.035Z,17.10
2023-05-25T12:46:52.260Z,17.30
2023-05-25T12:49:37.508Z,17.30
2023-05-25T12:52:05.149Z,17.10
2023-05-25T12:54:40.437Z,17.00
2023-05-25T12:57:10.562Z,17.60
2023-05-25T12:59:37.880Z,17.80
2023-05-25T13:02:06.323Z,17.80
2023-05-25T13:04:33.309Z,17.50
2023-05-25T13:07:00.130Z,17.10
2023-05-25T13:09:27.461Z,17.00
2023-05-25T13:11:55.037Z,17.00
2023-05-25T13:14:23.889Z,17.20
2023-05-25T13:16:50.817Z,17.60
2023-05-25T13:19:17.995Z,17.80
2023-05-25T13:21:45.067Z,18.20
2023-05-25T13:24:11.873Z,18.00
2023-05-25T13:26:38.663Z,17.40
2023-05-25T13:29:05.475Z,17.30
2023-05-25T13:31:39.347Z,17.20
2023-05-25T13:34:08.492Z,17.30
2023-05-25T13:36:35.317Z,17.50
2023-05-25T13:39:02.614Z,17.20
2023-05-25T13:41:29.422Z,17.20
2023-05-25T13:43:56.193Z,17.30
2023-05-25T13:46:34.121Z,17.10
2023-05-25T13:49:03.614Z,16.90
2023-05-25T13:51:30.709Z,16.80
2023-05-25T13:53:57.465Z,16.50
2023-05-25T13:56:24.266Z,16.40
2023-05-25T13:58:53.667Z,16.50
2023-05-25T14:01:20.616Z,16.90
2023-05-25T14:03:47.537Z,17.10
2023-05-25T14:06:22.032Z,17.10
2023-05-25T14:08:48.821Z,17.30
2023-05-25T14:11:16.254Z,17.70
2023-05-25T14:13:43.936Z,17.30
2023-05-25T14:16:10.763Z,17.40
2023-05-25T14:18:37.616Z,17.00
2023-05-25T14:21:04.575Z,16.80
2023-05-25T14:23:32.705Z,16.50
2023-05-25T14:25:59.473Z,16.60
2023-05-25T14:28:29.233Z,16.70
2023-05-25T14:30:56.029Z,17.00
2023-05-25T14:33:22.793Z,17.40
2023-05-25T14:35:49.736Z,17.80
2023-05-25T14:38:18.964Z,18.00
2023-05-25T14:40:49.257Z,17.90
2023-05-25T14:43:16.158Z,17.30
2023-05-25T14:45:43.371Z,17.10
2023-05-25T14:48:16.434Z,17.20
2023-05-25T14:50:43.936Z,17.20
2023-05-25T14:53:10.794Z,17.10
2023-05-25T14:55:37.735Z,16.90
2023-05-25T14:58:05.872Z,16.70
2023-05-25T15:00:32.637Z,16.70
2023-05-25T15:03:02.121Z,16.50
2023-05-25T15:05:31.492Z,16.20
2023-05-25T15:07:58.248Z,15.80
2023-05-25T15:10:25.008Z,15.60
2023-05-25T15:12:52.250Z,15.60
2023-05-25T15:15:20.351Z,15.70
2023-05-25T15:17:47.141Z,16.00
2023-05-25T15:20:14.067Z,16.30
2023-05-25T15:22:40.917Z,16.50
2023-05-25T15:25:08.330Z,16.70
2023-05-25T15:27:35.119Z,17.00
2023-05-25T15:30:06.034Z,17.30
2023-05-25T15:32:34.243Z,17.10
2023-05-25T15:35:01.132Z,17.20
2023-05-25T15:37:27.940Z,17.30
2023-05-25T15:39:54.709Z,17.60
2023-05-25T15:42:22.890Z,17.80
2023-05-25T15:44:49.753Z,17.80
2023-05-25T15:47:16.555Z,17.70
2023-05-25T15:49:46.382Z,17.60
2023-05-25T15:52:13.158Z,17.60
2023-05-25T15:54:39.968Z,17.40
2023-05-25T15:57:06.752Z,17.50
2023-05-25T15:59:33.583Z,17.80
2023-05-25T16:02:00.605Z,17.80
2023-05-25T16:04:27.537Z,17.70
2023-05-25T16:06:56.880Z,17.80
2023-05-25T16:09:23.694Z,17.60
2023-05-25T16:11:50.560Z,17.40
2023-05-25T16:14:18.492Z,17.20
2023-05-25T16:16:45.370Z,17.10
2023-05-25T16:19:14.073Z,16.90
2023-05-25T16:21:41.112Z,16.80
2023-05-25T16:24:09.294Z,16.70
2023-05-25T16:26:36.164Z,16.80
2023-05-25T16:29:03.206Z,17.00
2023-05-25T16:31:30.099Z,17.30
2023-05-25T16:33:56.910Z,17.30
2023-05-25T16:36:25.219Z,17.10
2023-05-25T16:38:53.326Z,16.90
2023-05-25T16:41:21.713Z,16.90
2023-05-25T16:43:48.538Z,17.00
2023-05-25T16:46:15.398Z,17.10
2023-05-25T16:48:42.202Z,17.00
2023-05-25T16:51:08.935Z,17.00
2023-05-25T16:53:35.746Z,17.00
2023-05-25T16:56:02.579Z,17.10
2023-05-25T16:58:30.719Z,17.00
2023-05-25T17:00:57.479Z,17.00
2023-05-25T17:03:24.321Z,17.00
2023-05-25T17:05:53.735Z,16.80
2023-05-25T17:08:20.680Z,16.90
2023-05-25T17:10:49.631Z,16.90
2023-05-25T17:13:16.431Z,16.80
2023-05-25T17:15:44.728Z,16.80
2023-05-25T17:18:11.735Z,16.70
2023-05-25T17:20:38.648Z,16.70
2023-05-25T17:23:05.530Z,16.70
2023-05-25T17:25:34.047Z,16.70
2023-05-25T17:28:00.977Z,16.50
2023-05-25T17:30:28.269Z,16.20
2023-05-25T17:33:00.199Z,15.90
2023-05-25T17:35:27.142Z,15.80
2023-05-25T17:37:53.987Z,15.70
2023-05-25T17:40:20.832Z,15.70
2023-05-25T17:42:47.676Z,15.70
2023-05-25T17:45:14.592Z,15.70
2023-05-25T17:47:41.413Z,15.70
2023-05-25T17:50:10.224Z,15.60
2023-05-25T17:52:36.835Z,15.60
2023-05-25T17:55:04.298Z,15.60
2023-05-25T17:57:31.107Z,15.60
2023-05-25T18:00:00.195Z,15.40
2023-05-25T18:02:35.228Z,15.40
2023-05-25T18:05:02.238Z,15.40
2023-05-25T18:07:30.325Z,15.30
2023-05-25T18:09:57.065Z,15.20
2023-05-25T18:12:23.910Z,15.10
2023-05-25T18:14:51.120Z,15.10
2023-05-25T18:17:17.976Z,15.00
2023-05-25T18:19:44.897Z,15.00
2023-05-25T18:22:14.793Z,14.90
2023-05-25T18:24:45.245Z,14.90
2023-05-25T18:27:12.033Z,14.80
2023-05-25T18:29:38.799Z,14.80
2023-05-25T18:32:06.059Z,14.60
2023-05-25T18:34:32.887Z,14.40
2023-05-25T18:37:02.371Z,14.30
2023-05-25T18:39:29.139Z,14.20
2023-05-25T18:42:00.964Z,14.00
2023-05-25T18:44:27.744Z,14.00
2023-05-25T18:46:54.532Z,13.90
2023-05-25T18:49:21.331Z,13.80
2023-05-25T18:51:48.098Z,13.70
2023-05-25T18:54:15.404Z,13.60
2023-05-25T18:56:42.285Z,13.50
2023-05-25T18:59:10.423Z,13.40
2023-05-25T19:01:37.251Z,13.30
2023-05-25T19:04:04.263Z,13.30
2023-05-25T19:06:31.173Z,13.10
2023-05-25T19:08:58.022Z,13.10
2023-05-25T19:11:24.803Z,12.90
2023-05-25T19:13:54.426Z,12.90
2023-05-25T19:16:22.664Z,12.80
2023-05-25T19:18:49.453Z,12.70
2023-05-25T19:21:17.617Z,12.60
2023-05-25T19:23:44.367Z,12.50
2023-05-25T19:26:11.151Z,12.40
2023-05-25T19:28:37.916Z,12.20
2023-05-25T19:31:07.888Z,12.10
2023-05-25T19:33:36.134Z,12.00
2023-05-25T19:36:03.136Z,11.90
2023-05-25T19:38:40.296Z,11.80
2023-05-25T19:41:07.919Z,11.70
2023-05-25T19:43:34.729Z,11.60
2023-05-25T19:46:01.555Z,11.50
2023-05-25T19:48:28.385Z,11.40
2023-05-25T19:50:56.526Z,11.30
2023-05-25T19:53:23.381Z,11.30
2023-05-25T19:55:50.180Z,11.20
2023-05-25T19:58:16.975Z,11.10
2023-05-25T20:00:46.596Z,11.10
2023-05-25T20:03:14.159Z,11.00
2023-05-25T20:05:40.946Z,10.90
2023-05-25T20:08:10.454Z,10.90
2023-05-25T20:10:39.462Z,10.80
2023-05-25T20:13:06.932Z,10.70
2023-05-25T20:15:33.816Z,10.60
2023-05-25T20:18:01.586Z,10.50
2023-05-25T20:20:28.412Z,10.40
2023-05-25T20:22:55.250Z,10.40
2023-05-25T20:25:23.367Z,10.30
2023-05-25T20:27:50.144Z,10.20
2023-05-25T20:30:19.980Z,10.20
2023-05-25T20:32:46.844Z,10.10
2023-05-25T20:35:13.881Z,10.10
2023-05-25T20:37:43.246Z,10.00
2023-05-25T20:40:10.126Z,9.90
2023-05-25T20:42:38.274Z,9.80
2023-05-25T20:45:06.084Z,9.80
2023-05-25T20:47:32.868Z,9.70
2023-05-25T20:49:59.820Z,9.70
2023-05-25T20:52:26.599Z,9.60
2023-05-25T20:54:56.090Z,9.60
2023-05-25T20:57:27.379Z,9.50
2023-05-25T20:59:55.646Z,9.50
2023-05-25T21:02:22.473Z,9.50
2023-05-25T21:04:51.986Z,9.40
2023-05-25T21:07:21.335Z,9.40
2023-05-25T21:09:48.129Z,9.30
2023-05-25T21:12:14.928Z,9.20
2023-05-25T21:14:41.681Z,9.20
2023-05-25T21:17:12.335Z,9.10
2023-05-25T21:19:39.109Z,9.10
2023-05-25T21:22:05.973Z,9.00
2023-05-25T21:24:32.764Z,9.00
2023-05-25T21:27:02.869Z,8.90
2023-05-25T21:29:32.728Z,8.90
2023-05-25T21:31:59.636Z,8.80
2023-05-25T21:34:28.889Z,8.80
2023-05-25T21:36:55.631Z,8.70
2023-05-25T21:39:24.995Z,8.60
2023-05-25T21:41:51.778Z,8.60
2023-05-25T21:44:18.626Z,8.50
2023-05-25T21:46:45.535Z,8.50
2023-05-25T21:49:17.949Z,8.40
2023-05-25T21:51:48.633Z,8.40
2023-05-25T21:54:15.902Z,8.30
2023-05-25T21:56:48.043Z,8.30
2023-05-25T21:59:14.979Z,8.30
2023-05-25T22:01:41.895Z,8.20
2023-05-25T22:04:08.762Z,8.10
2023-05-25T22:06:38.595Z,8.10
2023-05-25T22:09:09.740Z,8.00
2023-05-25T22:11:36.548Z,8.00
2023-05-25T22:14:06.043Z,8.00
2023-05-25T22:16:32.900Z,7.90
2023-05-25T22:18:59.759Z,7.90
2023-05-25T22:21:26.543Z,7.80
2023-05-25T22:23:53.331Z,7.80
2023-05-25T22:26:21.451Z,7.80
2023-05-25T22:28:48.212Z,7.80
2023-05-25T22:31:16.742Z,7.70
2023-05-25T22:33:46.018Z,7.70
2023-05-25T22:36:12.781Z,7.70
2023-05-25T22:38:39.558Z,7.60
2023-05-25T22:41:06.312Z,7.60
2023-05-25T22:43:34.407Z,7.60
2023-05-25T22:46:01.271Z,7.50
2023-05-25T22:48:30.405Z,7.50
2023-05-25T22:50:57.267Z,7.50
2023-05-25T22:53:24.372Z,7.40
2023-05-25T22:55:51.443Z,7.40
2023-05-25T22:58:18.609Z,7.40
2023-05-25T23:00:46.775Z,7.30
2023-05-25T23:03:16.218Z,7.30
2023-05-25T23:05:44.626Z,7.20
2023-05-25T23:08:11.485Z,7.20
2023-05-25T23:10:38.216Z,7.20
2023-05-25T23:13:05.708Z,7.10
2023-05-25T23:15:32.464Z,7.10
2023-05-25T23:18:00.587Z,7.10
2023-05-25T23:20:27.397Z,7.00
2023-05-25T23:22:55.561Z,7.00
2023-05-25T23:25:26.769Z,6.90
2023-05-25T23:27:55.983Z,6.90
2023-05-25T23:30:22.727Z,6.90
2023-05-25T23:32:49.627Z,6.90
2023-05-25T23:35:18.865Z,6.80
2023-05-25T23:37:45.601Z,6.80
2023-05-25T23:40:12.452Z,6.70
2023-05-25T23:42:40.224Z,6.70
2023-05-25T23:45:08.231Z,6.70
2023-05-25T23:47:35.096Z,6.70
2023-05-25T23:50:02.257Z,6.70
2023-05-25T23:52:36.025Z,6.60
2023-05-25T23:55:02.810Z,6.60
2023-05-25T23:57:31.434Z,6.60
